createdAt,value
2022-08-26T00:00:46.902Z,95513.00
2022-08-26T00:04:50.436Z,95501.00
2022-08-26T00:08:54.998Z,95501.00
2022-08-26T00:12:57.721Z,95504.00
2022-08-26T00:17:00.514Z,95496.00
2022-08-26T00:21:06.254Z,95503.00
2022-08-26T00:25:12.105Z,95503.00
2022-08-26T00:29:15.212Z,95499.00
2022-08-26T00:33:19.633Z,95499.00
2022-08-26T00:37:22.463Z,95501.00
2022-08-26T00:41:26.668Z,95496.00
2022-08-26T00:45:36.451Z,95495.00
2022-08-26T00:49:43.010Z,95493.00
2022-08-26T00:53:51.469Z,95489.00
2022-08-26T00:57:56.785Z,95495.00
2022-08-26T01:02:00.203Z,95499.00
2022-08-26T01:06:12.551Z,95501.00
2022-08-26T01:10:17.958Z,95504.00
2022-08-26T01:14:23.554Z,95493.00
2022-08-26T01:18:26.690Z,95498.00
2022-08-26T01:22:37.912Z,95490.00
2022-08-26T01:26:44.685Z,95483.00
2022-08-26T01:30:49.350Z,95488.00
2022-08-26T01:34:52.703Z,95483.00
2022-08-26T01:38:56.019Z,95484.00
2022-08-26T01:43:02.386Z,95487.00
2022-08-26T01:47:06.435Z,95490.00
2022-08-26T01:51:10.765Z,95480.00
2022-08-26T01:55:15.370Z,95488.00
2022-08-26T01:59:37.011Z,95480.00
2022-08-26T02:03:52.340Z,95477.00
2022-08-26T02:07:55.132Z,95480.00
2022-08-26T02:11:59.478Z,95473.00
2022-08-26T02:16:04.763Z,95476.00
2022-08-26T02:20:14.929Z,95466.00
2022-08-26T02:24:22.271Z,95475.00
2022-08-26T02:28:29.945Z,95476.00
2022-08-26T02:32:34.748Z,95487.00
2022-08-26T02:36:39.099Z,95472.00
2022-08-26T02:40:44.002Z,95473.00
2022-08-26T02:44:46.825Z,95464.00
2022-08-26T02:48:51.067Z,95466.00
2022-08-26T02:52:54.281Z,95468.00
2022-08-26T02:56:57.086Z,95479.00
2022-08-26T03:01:00.279Z,95471.00
2022-08-26T03:05:06.437Z,95464.00
2022-08-26T03:09:09.798Z,95469.00
2022-08-26T03:13:16.857Z,95469.00
2022-08-26T03:17:20.993Z,95468.00
2022-08-26T03:21:25.093Z,95466.00
2022-08-26T03:25:30.111Z,95454.00
2022-08-26T03:29:51.298Z,95458.00
2022-08-26T03:33:59.547Z,95464.00
2022-08-26T03:38:04.839Z,95460.00
2022-08-26T03:42:10.689Z,95470.00
2022-08-26T03:46:13.713Z,95458.00
2022-08-26T03:50:22.671Z,95451.00
2022-08-26T03:54:27.394Z,95460.00
2022-08-26T03:58:30.986Z,95446.00
2022-08-26T04:02:33.901Z,95448.00
2022-08-26T04:06:39.827Z,95447.00
2022-08-26T04:10:43.946Z,95441.00
2022-08-26T04:14:47.268Z,95449.00
2022-08-26T04:18:50.030Z,95447.00
2022-08-26T04:22:52.779Z,95449.00
2022-08-26T04:26:57.801Z,95459.00
2022-08-26T04:31:00.779Z,95448.00
2022-08-26T04:35:04.639Z,95450.00
2022-08-26T04:39:08.899Z,95448.00
2022-08-26T04:43:13.311Z,95443.00
2022-08-26T04:47:16.642Z,95440.00
2022-08-26T04:51:27.227Z,95451.00
2022-08-26T04:55:38.162Z,95446.00
2022-08-26T04:59:43.759Z,95458.00
2022-08-26T05:03:46.555Z,95452.00
2022-08-26T05:07:49.945Z,95449.00
2022-08-26T05:11:52.807Z,95447.00
2022-08-26T05:16:00.568Z,95459.00
2022-08-26T05:20:06.070Z,95464.00
2022-08-26T05:24:11.947Z,95465.00
2022-08-26T05:28:16.603Z,95472.00
2022-08-26T05:32:20.778Z,95474.00
2022-08-26T05:36:26.965Z,95477.00
2022-08-26T05:40:32.078Z,95467.00
2022-08-26T05:44:50.120Z,95471.00
2022-08-26T05:48:59.691Z,95473.00
2022-08-26T05:53:02.914Z,95474.00
2022-08-26T05:57:07.200Z,95489.00
2022-08-26T06:01:14.940Z,95484.00
2022-08-26T06:05:19.110Z,95477.00
2022-08-26T06:09:21.862Z,95476.00
2022-08-26T06:13:27.759Z,95479.00
2022-08-26T06:17:34.475Z,95490.00
2022-08-26T06:21:40.056Z,95475.00
2022-08-26T06:25:41.969Z,95476.00
2022-08-26T06:29:46.222Z,95470.00
2022-08-26T06:33:49.890Z,95471.00
2022-08-26T06:37:54.231Z,95475.00
2022-08-26T06:41:57.051Z,95485.00
2022-08-26T06:46:02.973Z,95490.00
2022-08-26T06:50:08.376Z,95489.00
2022-08-26T06:54:12.566Z,95487.00
2022-08-26T06:58:15.351Z,95485.00
2022-08-26T07:02:18.156Z,95488.00
2022-08-26T07:06:21.087Z,95490.00
2022-08-26T07:10:25.839Z,95492.00
2022-08-26T07:14:28.685Z,95490.00
2022-08-26T07:18:31.767Z,95495.00
2022-08-26T07:22:37.232Z,95496.00
2022-08-26T07:26:43.158Z,95504.00
2022-08-26T07:30:46.049Z,95500.00
2022-08-26T07:34:49.083Z,95505.00
2022-08-26T07:38:53.270Z,95500.00
2022-08-26T07:42:57.860Z,95507.00
2022-08-26T07:47:03.739Z,95508.00
2022-08-26T07:51:14.315Z,95500.00
2022-08-26T07:55:17.502Z,95499.00
2022-08-26T07:59:21.625Z,95503.00
2022-08-26T08:03:25.743Z,95496.00
2022-08-26T08:07:44.145Z,95495.00
2022-08-26T08:11:48.339Z,95498.00
2022-08-26T08:15:52.526Z,95497.00
2022-08-26T08:19:55.275Z,95495.00
2022-08-26T08:23:58.967Z,95495.00
2022-08-26T08:28:01.828Z,95494.00
2022-08-26T08:32:06.341Z,95490.00
2022-08-26T08:36:18.577Z,95501.00
2022-08-26T08:40:26.363Z,95494.00
2022-08-26T08:44:29.398Z,95495.00
2022-08-26T08:48:39.917Z,95489.00
2022-08-26T08:52:47.455Z,95499.00
2022-08-26T08:56:53.850Z,95499.00
2022-08-26T09:01:03.028Z,95500.00
2022-08-26T09:05:15.389Z,95501.00
2022-08-26T09:09:25.071Z,95496.00
2022-08-26T09:13:29.151Z,95508.00
2022-08-26T09:17:46.651Z,95496.00
2022-08-26T09:21:58.278Z,95494.00
2022-08-26T09:26:03.527Z,95495.00
2022-08-26T09:30:08.669Z,95482.00
2022-08-26T09:34:18.481Z,95482.00
2022-08-26T09:38:28.025Z,95489.00
2022-08-26T09:42:31.116Z,95492.00
2022-08-26T09:46:34.082Z,95482.00
2022-08-26T09:50:38.570Z,95476.00
2022-08-26T09:54:58.237Z,95476.00
2022-08-26T09:59:03.002Z,95472.00
2022-08-26T10:03:10.746Z,95466.00
2022-08-26T10:07:13.759Z,95452.00
2022-08-26T10:11:28.026Z,95449.00
2022-08-26T10:15:41.387Z,95433.00
2022-08-26T10:19:57.955Z,95426.00
2022-08-26T10:24:01.543Z,95421.00
2022-08-26T10:28:12.996Z,95425.00
2022-08-26T10:32:24.516Z,95414.00
2022-08-26T10:37:13.587Z,95397.00
2022-08-26T10:41:15.882Z,95386.00
2022-08-26T10:45:25.300Z,95408.00
2022-08-26T10:49:28.493Z,95393.00
2022-08-26T10:53:44.556Z,95391.00
2022-08-26T10:57:56.410Z,95366.00
2022-08-26T11:02:07.065Z,95373.00
2022-08-26T11:06:27.939Z,95366.00
2022-08-26T11:10:58.935Z,95356.00
2022-08-26T11:15:02.039Z,95357.00
2022-08-26T11:19:11.275Z,95359.00
2022-08-26T11:23:50.405Z,95351.00
2022-08-26T11:27:57.468Z,95349.00
2022-08-26T11:32:00.299Z,95340.00
2022-08-26T11:36:11.983Z,95343.00
2022-08-26T11:40:18.251Z,95342.00
2022-08-26T11:44:24.808Z,95342.00
2022-08-26T11:48:30.974Z,95362.00
2022-08-26T11:52:35.131Z,95354.00
2022-08-26T11:56:38.959Z,95328.00
2022-08-26T12:00:51.776Z,95310.00
2022-08-26T12:04:55.531Z,95297.00
2022-08-26T12:09:02.137Z,95306.00
2022-08-26T12:13:07.146Z,95312.00
2022-08-26T12:17:12.767Z,95304.00
2022-08-26T12:21:24.369Z,95296.00
2022-08-26T12:25:30.692Z,95293.00
2022-08-26T12:29:38.961Z,95301.00
2022-08-26T12:33:42.766Z,95331.00
2022-08-26T12:37:48.655Z,95352.00
2022-08-26T12:41:56.416Z,95332.00
2022-08-26T12:46:00.578Z,95323.00
2022-08-26T12:50:07.730Z,95317.00
2022-08-26T12:54:15.943Z,95315.00
2022-08-26T12:58:29.840Z,95291.00
2022-08-26T13:02:36.435Z,95291.00
2022-08-26T13:06:39.419Z,95287.00
2022-08-26T13:10:44.473Z,95281.00
2022-08-26T13:14:48.626Z,95280.00
2022-08-26T13:18:53.393Z,95298.00
2022-08-26T13:22:59.100Z,95300.00
2022-08-26T13:27:02.947Z,95293.00
2022-08-26T13:31:07.504Z,95295.00
2022-08-26T13:35:11.914Z,95283.00
2022-08-26T13:39:14.823Z,95285.00
2022-08-26T13:43:17.948Z,95284.00
2022-08-26T13:47:22.838Z,95289.00
2022-08-26T13:51:26.620Z,95285.00
2022-08-26T13:55:29.724Z,95298.00
2022-08-26T13:59:33.315Z,95301.00
2022-08-26T14:03:37.746Z,95297.00
2022-08-26T14:07:40.644Z,95301.00
2022-08-26T14:11:53.915Z,95303.00
2022-08-26T14:15:58.643Z,95301.00
2022-08-26T14:20:03.507Z,95302.00
2022-08-26T14:24:07.473Z,95311.00
2022-08-26T14:28:10.276Z,95310.00
2022-08-26T14:32:21.018Z,95324.00
2022-08-26T14:36:29.197Z,95319.00
2022-08-26T14:40:33.887Z,95335.00
2022-08-26T14:44:45.334Z,95333.00
2022-08-26T14:54:37.734Z,95304.00
2022-08-26T14:58:40.492Z,95310.00
2022-08-26T15:02:44.051Z,95308.00
2022-08-26T15:06:47.194Z,95302.00
2022-08-26T15:10:51.303Z,95303.00
2022-08-26T15:14:54.100Z,95295.00
2022-08-26T15:18:57.835Z,95298.00
2022-08-26T15:23:03.783Z,95285.00
2022-08-26T15:27:10.637Z,95282.00
2022-08-26T15:31:13.780Z,95286.00
2022-08-26T15:35:16.695Z,95272.00
2022-08-26T15:39:19.966Z,95273.00
2022-08-26T15:43:29.031Z,95268.00
2022-08-26T15:47:32.047Z,95256.00
2022-08-26T15:51:45.383Z,95264.00
2022-08-26T15:55:49.197Z,95268.00
2022-08-26T15:59:53.899Z,95262.00
2022-08-26T16:03:57.480Z,95261.00
2022-08-26T16:08:01.851Z,95256.00
2022-08-26T16:12:05.175Z,95254.00
2022-08-26T16:16:10.055Z,95255.00
2022-08-26T16:20:13.163Z,95256.00
2022-08-26T16:24:16.167Z,95257.00
2022-08-26T16:28:25.995Z,95257.00
2022-08-26T16:32:31.357Z,95258.00
2022-08-26T16:36:35.351Z,95269.00
2022-08-26T16:40:38.597Z,95272.00
2022-08-26T16:44:45.221Z,95269.00
2022-08-26T16:48:49.506Z,95265.00
2022-08-26T16:52:54.252Z,95264.00
2022-08-26T16:56:58.557Z,95265.00
2022-08-26T17:01:01.352Z,95265.00
2022-08-26T17:05:06.708Z,95272.00
2022-08-26T17:09:09.665Z,95273.00
2022-08-26T17:13:12.465Z,95270.00
2022-08-26T17:17:28.853Z,95269.00
2022-08-26T17:21:34.175Z,95266.00
2022-08-26T17:25:37.819Z,95272.00
2022-08-26T17:29:40.963Z,95259.00
2022-08-26T17:33:46.712Z,95269.00
2022-08-26T17:37:53.301Z,95284.00
2022-08-26T17:41:56.052Z,95282.00
2022-08-26T17:46:07.088Z,95286.00
2022-08-26T17:50:13.208Z,95291.00
2022-08-26T17:54:17.392Z,95302.00
2022-08-26T17:58:23.399Z,95298.00
2022-08-26T18:06:34.264Z,95297.00
2022-08-26T18:10:38.460Z,95299.00
2022-08-26T18:14:41.239Z,95298.00
2022-08-26T18:18:44.219Z,95302.00
2022-08-26T18:22:48.135Z,95312.00
2022-08-26T18:26:52.319Z,95347.00
2022-08-26T18:30:56.988Z,95349.00
2022-08-26T18:35:00.461Z,95347.00
2022-08-26T18:39:04.753Z,95376.00
2022-08-26T18:43:08.970Z,95400.00
2022-08-26T18:47:12.086Z,95384.00
2022-08-26T18:51:17.647Z,95389.00
2022-08-26T18:55:20.484Z,95384.00
2022-08-26T18:59:29.636Z,95414.00
2022-08-26T19:03:33.934Z,95429.00
2022-08-26T19:07:39.633Z,95424.00
2022-08-26T19:11:43.235Z,95393.00
2022-08-26T19:15:47.639Z,95404.00
2022-08-26T19:19:50.583Z,95410.00
2022-08-26T19:23:57.893Z,95395.00
2022-08-26T19:28:00.643Z,95385.00
2022-08-26T19:32:06.133Z,95371.00
2022-08-26T19:36:14.599Z,95386.00
2022-08-26T19:40:17.786Z,95413.00
2022-08-26T19:44:41.678Z,95416.00
2022-08-26T19:48:46.162Z,95405.00
2022-08-26T19:52:49.354Z,95400.00
2022-08-26T19:56:52.333Z,95389.00
2022-08-26T20:00:55.159Z,95374.00
2022-08-26T20:04:59.333Z,95363.00
2022-08-26T20:09:02.200Z,95343.00
2022-08-26T20:13:05.014Z,95345.00
2022-08-26T20:17:11.551Z,95357.00
2022-08-26T20:21:27.992Z,95368.00
2022-08-26T20:25:32.453Z,95364.00
2022-08-26T20:29:35.640Z,95355.00
2022-08-26T20:33:39.811Z,95344.00
2022-08-26T20:37:50.734Z,95349.00
2022-08-26T20:41:54.017Z,95356.00
2022-08-26T20:45:56.835Z,95359.00
2022-08-26T20:49:59.803Z,95365.00
2022-08-26T20:54:04.912Z,95366.00
2022-08-26T20:58:07.675Z,95368.00
2022-08-26T21:02:10.430Z,95393.00
2022-08-26T21:06:13.618Z,95417.00
2022-08-26T21:10:17.966Z,95419.00
2022-08-26T21:14:23.134Z,95437.00
2022-08-26T21:18:28.585Z,95454.00
2022-08-26T21:22:31.430Z,95460.00
2022-08-26T21:26:35.704Z,95454.00
2022-08-26T21:30:38.745Z,95469.00
2022-08-26T21:34:41.861Z,95470.00
2022-08-26T21:38:45.042Z,95464.00
2022-08-26T21:42:49.315Z,95471.00
2022-08-26T21:46:52.065Z,95463.00
2022-08-26T21:50:57.193Z,95453.00
2022-08-26T21:55:00.529Z,95452.00
2022-08-26T21:59:04.633Z,95454.00
2022-08-26T22:03:07.374Z,95463.00
2022-08-26T22:07:10.172Z,95476.00
2022-08-26T22:11:13.420Z,95479.00
2022-08-26T22:15:19.690Z,95476.00
2022-08-26T22:19:23.518Z,95488.00
2022-08-26T22:23:26.587Z,95484.00
2022-08-26T22:27:29.407Z,95478.00
2022-08-26T22:31:38.048Z,95461.00
2022-08-26T22:35:42.582Z,95452.00
2022-08-26T22:39:45.338Z,95438.00
2022-08-26T22:43:48.647Z,95436.00
2022-08-26T22:47:52.802Z,95436.00
2022-08-26T22:51:55.803Z,95433.00
2022-08-26T22:55:58.907Z,95440.00
2022-08-26T23:00:04.190Z,95449.00
2022-08-26T23:04:09.333Z,95477.00
2022-08-26T23:08:12.562Z,95482.00
2022-08-26T23:12:15.310Z,95485.00
2022-08-26T23:16:18.211Z,95481.00
2022-08-26T23:20:22.681Z,95467.00
2022-08-26T23:24:25.502Z,95467.00
2022-08-26T23:28:28.257Z,95463.00
2022-08-26T23:32:30.994Z,95465.00
2022-08-26T23:36:35.285Z,95462.00
2022-08-26T23:40:40.469Z,95460.00
2022-08-26T23:44:43.579Z,95442.00
2022-08-26T23:48:46.611Z,95448.00
2022-08-26T23:53:09.030Z,95468.00
2022-08-26T23:57:11.833Z,95474.00
